sensor_id;sensor_type;location;lat;lon;timestamp;pressure;altitude;pressure_sealevel;temperature;humidity
72486;BME280;60509;47.308;-122.428;2023-05-23T00:00:45;101110.26;;;15.68;26.94
72486;BME280;60509;47.308;-122.428;2023-05-23T00:03:11;101110.47;;;16.70;25.81
72486;BME280;60509;47.308;-122.428;2023-05-23T00:05:37;101110.06;;;15.85;26.28
72486;BME280;60509;47.308;-122.428;2023-05-23T00:08:03;101107.38;;;16.29;25.83
72486;BME280;60509;47.308;-122.428;2023-05-23T00:10:29;101110.69;;;16.17;25.98
72486;BME280;60509;47.308;-122.428;2023-05-23T00:12:55;101113.97;;;16.38;25.99
72486;BME280;60509;47.308;-122.428;2023-05-23T00:15:21;101113.06;;;15.70;26.50
72486;BME280;60509;47.308;-122.428;2023-05-23T00:17:47;101110.19;;;16.27;26.58
72486;BME280;60509;47.308;-122.428;2023-05-23T00:20:13;101106.49;;;16.04;26.62
72486;BME280;60509;47.308;-122.428;2023-05-23T00:22:39;101111.69;;;15.66;27.56
72486;BME280;60509;47.308;-122.428;2023-05-23T00:25:05;101109.11;;;15.84;27.17
72486;BME280;60509;47.308;-122.428;2023-05-23T00:27:30;101110.80;;;16.43;27.13
72486;BME280;60509;47.308;-122.428;2023-05-23T00:29:56;101109.55;;;14.14;28.01
72486;BME280;60509;47.308;-122.428;2023-05-23T00:32:22;101110.14;;;15.58;27.20
72486;BME280;60509;47.308;-122.428;2023-05-23T00:34:48;101111.66;;;15.01;26.99
72486;BME280;60509;47.308;-122.428;2023-05-23T00:37:14;101111.77;;;15.47;25.78
72486;BME280;60509;47.308;-122.428;2023-05-23T00:39:40;101112.41;;;15.25;26.13
72486;BME280;60509;47.308;-122.428;2023-05-23T00:42:07;101108.72;;;16.30;25.90
72486;BME280;60509;47.308;-122.428;2023-05-23T00:44:32;101108.82;;;15.50;26.06
72486;BME280;60509;47.308;-122.428;2023-05-23T00:46:58;101109.22;;;15.58;26.29
72486;BME280;60509;47.308;-122.428;2023-05-23T00:49:25;101108.75;;;15.97;25.91
72486;BME280;60509;47.308;-122.428;2023-05-23T00:51:51;101107.99;;;16.36;25.67
72486;BME280;60509;47.308;-122.428;2023-05-23T00:54:19;101111.01;;;17.10;25.33
72486;BME280;60509;47.308;-122.428;2023-05-23T00:56:43;101108.82;;;16.73;25.71
72486;BME280;60509;47.308;-122.428;2023-05-23T00:59:08;101102.86;;;15.64;26.54
72486;BME280;60509;47.308;-122.428;2023-05-23T01:01:34;101103.48;;;14.50;27.11
72486;BME280;60509;47.308;-122.428;2023-05-23T01:04:00;101106.27;;;15.99;26.16
72486;BME280;60509;47.308;-122.428;2023-05-23T01:06:26;101106.88;;;16.91;25.60
72486;BME280;60509;47.308;-122.428;2023-05-23T01:08:52;101108.01;;;17.37;25.58
72486;BME280;60509;47.308;-122.428;2023-05-23T01:11:24;101106.19;;;17.10;25.37
72486;BME280;60509;47.308;-122.428;2023-05-23T01:13:53;101103.74;;;16.93;25.69
72486;BME280;60509;47.308;-122.428;2023-05-23T01:16:15;101106.65;;;16.60;25.53
72486;BME280;60509;47.308;-122.428;2023-05-23T01:18:38;101108.27;;;15.80;26.27
72486;BME280;60509;47.308;-122.428;2023-05-23T01:21:08;101106.04;;;16.79;25.87
72486;BME280;60509;47.308;-122.428;2023-05-23T01:23:42;101104.22;;;17.07;25.67
72486;BME280;60509;47.308;-122.428;2023-05-23T01:26:11;101106.64;;;17.22;25.60
72486;BME280;60509;47.308;-122.428;2023-05-23T01:28:21;101103.89;;;16.96;25.40
72486;BME280;60509;47.308;-122.428;2023-05-23T01:30:46;101100.82;;;16.72;25.82
72486;BME280;60509;47.308;-122.428;2023-05-23T01:33:14;101101.38;;;14.65;26.89
72486;BME280;60509;47.308;-122.428;2023-05-23T01:35:37;101100.70;;;13.92;26.50
72486;BME280;60509;47.308;-122.428;2023-05-23T01:38:03;101100.55;;;15.68;25.81
72486;BME280;60509;47.308;-122.428;2023-05-23T01:40:29;101098.35;;;15.47;25.87
72486;BME280;60509;47.308;-122.428;2023-05-23T01:42:56;101099.97;;;17.23;24.62
72486;BME280;60509;47.308;-122.428;2023-05-23T01:45:21;101097.27;;;16.55;25.24
72486;BME280;60509;47.308;-122.428;2023-05-23T01:47:49;101093.11;;;15.60;25.72
72486;BME280;60509;47.308;-122.428;2023-05-23T01:50:13;101099.21;;;15.44;26.09
72486;BME280;60509;47.308;-122.428;2023-05-23T01:52:39;101096.60;;;16.63;25.24
72486;BME280;60509;47.308;-122.428;2023-05-23T01:55:06;101093.20;;;16.39;25.52
72486;BME280;60509;47.308;-122.428;2023-05-23T01:57:32;101092.01;;;15.97;25.21
72486;BME280;60509;47.308;-122.428;2023-05-23T01:59:57;101094.64;;;16.34;24.78
72486;BME280;60509;47.308;-122.428;2023-05-23T02:02:23;101097.09;;;15.30;25.33
72486;BME280;60509;47.308;-122.428;2023-05-23T02:04:49;101094.98;;;16.82;24.53
72486;BME280;60509;47.308;-122.428;2023-05-23T02:07:15;101095.42;;;16.20;24.81
72486;BME280;60509;47.308;-122.428;2023-05-23T02:09:41;101097.37;;;16.41;24.74
72486;BME280;60509;47.308;-122.428;2023-05-23T02:12:07;101098.18;;;16.53;24.74
72486;BME280;60509;47.308;-122.428;2023-05-23T02:14:33;101097.99;;;15.92;24.88
72486;BME280;60509;47.308;-122.428;2023-05-23T02:16:59;101095.53;;;16.07;24.76
72486;BME280;60509;47.308;-122.428;2023-05-23T02:19:25;101093.88;;;16.64;24.52
72486;BME280;60509;47.308;-122.428;2023-05-23T02:21:51;101092.77;;;16.47;24.72
72486;BME280;60509;47.308;-122.428;2023-05-23T02:24:17;101094.08;;;16.21;24.49
72486;BME280;60509;47.308;-122.428;2023-05-23T02:26:43;101096.24;;;16.65;24.37
72486;BME280;60509;47.308;-122.428;2023-05-23T02:29:09;101104.59;;;16.49;24.53
72486;BME280;60509;47.308;-122.428;2023-05-23T02:31:36;101100.59;;;15.19;25.23
72486;BME280;60509;47.308;-122.428;2023-05-23T02:34:01;101100.13;;;15.52;24.72
72486;BME280;60509;47.308;-122.428;2023-05-23T02:36:27;101102.45;;;15.60;25.01
72486;BME280;60509;47.308;-122.428;2023-05-23T02:38:54;101101.57;;;15.73;24.69
72486;BME280;60509;47.308;-122.428;2023-05-23T02:41:19;101103.42;;;13.98;25.76
72486;BME280;60509;47.308;-122.428;2023-05-23T02:43:46;101099.58;;;14.98;25.65
72486;BME280;60509;47.308;-122.428;2023-05-23T02:46:11;101104.21;;;15.52;25.39
72486;BME280;60509;47.308;-122.428;2023-05-23T02:48:37;101102.01;;;15.74;25.37
72486;BME280;60509;47.308;-122.428;2023-05-23T02:51:03;101099.01;;;15.46;25.39
72486;BME280;60509;47.308;-122.428;2023-05-23T02:53:29;101099.45;;;15.35;25.07
72486;BME280;60509;47.308;-122.428;2023-05-23T02:55:55;101096.80;;;15.99;25.14
72486;BME280;60509;47.308;-122.428;2023-05-23T02:58:21;101099.24;;;16.15;25.26
72486;BME280;60509;47.308;-122.428;2023-05-23T03:00:47;101100.18;;;14.49;25.46
72486;BME280;60509;47.308;-122.428;2023-05-23T03:03:13;101098.47;;;15.36;24.85
72486;BME280;60509;47.308;-122.428;2023-05-23T03:05:39;101099.07;;;16.64;24.53
72486;BME280;60509;47.308;-122.428;2023-05-23T03:08:05;101099.38;;;16.86;24.25
72486;BME280;60509;47.308;-122.428;2023-05-23T03:10:31;101103.55;;;16.41;24.34
72486;BME280;60509;47.308;-122.428;2023-05-23T03:12:57;101102.93;;;15.43;24.95
72486;BME280;60509;47.308;-122.428;2023-05-23T03:15:23;101106.38;;;16.71;24.65
72486;BME280;60509;47.308;-122.428;2023-05-23T03:17:49;101113.48;;;15.17;25.30
72486;BME280;60509;47.308;-122.428;2023-05-23T03:20:15;101118.04;;;15.40;25.19
72486;BME280;60509;47.308;-122.428;2023-05-23T03:22:41;101121.77;;;15.18;25.07
72486;BME280;60509;47.308;-122.428;2023-05-23T03:25:07;101121.62;;;15.73;24.89
72486;BME280;60509;47.308;-122.428;2023-05-23T03:27:32;101123.32;;;16.09;24.75
72486;BME280;60509;47.308;-122.428;2023-05-23T03:29:58;101122.38;;;15.89;25.45
72486;BME280;60509;47.308;-122.428;2023-05-23T03:32:24;101126.20;;;14.97;25.92
72486;BME280;60509;47.308;-122.428;2023-05-23T03:34:50;101125.49;;;15.66;25.59
72486;BME280;60509;47.308;-122.428;2023-05-23T03:37:16;101126.91;;;15.84;25.15
72486;BME280;60509;47.308;-122.428;2023-05-23T03:39:42;101128.22;;;16.96;24.50
72486;BME280;60509;47.308;-122.428;2023-05-23T03:42:08;101132.07;;;18.23;23.78
72486;BME280;60509;47.308;-122.428;2023-05-23T03:44:34;101133.39;;;18.03;24.29
72486;BME280;60509;47.308;-122.428;2023-05-23T03:47:00;101137.49;;;17.83;24.19
72486;BME280;60509;47.308;-122.428;2023-05-23T03:49:26;101142.55;;;17.97;24.67
72486;BME280;60509;47.308;-122.428;2023-05-23T03:51:52;101143.60;;;18.03;24.56
72486;BME280;60509;47.308;-122.428;2023-05-23T03:54:18;101149.83;;;17.21;25.10
72486;BME280;60509;47.308;-122.428;2023-05-23T03:56:44;101149.52;;;17.73;24.99
72486;BME280;60509;47.308;-122.428;2023-05-23T03:59:10;101150.00;;;18.11;25.10
72486;BME280;60509;47.308;-122.428;2023-05-23T04:01:36;101152.43;;;18.01;25.50
72486;BME280;60509;47.308;-122.428;2023-05-23T04:04:02;101153.19;;;18.00;25.28
72486;BME280;60509;47.308;-122.428;2023-05-23T04:06:28;101155.35;;;18.02;25.66
72486;BME280;60509;47.308;-122.428;2023-05-23T04:08:53;101158.76;;;17.45;26.09
72486;BME280;60509;47.308;-122.428;2023-05-23T04:11:19;101162.33;;;17.69;25.80
72486;BME280;60509;47.308;-122.428;2023-05-23T04:13:45;101165.46;;;18.59;25.60
72486;BME280;60509;47.308;-122.428;2023-05-23T04:16:11;101162.22;;;18.00;25.80
72486;BME280;60509;47.308;-122.428;2023-05-23T04:18:37;101162.87;;;17.85;26.19
72486;BME280;60509;47.308;-122.428;2023-05-23T04:21:03;101167.53;;;18.33;26.02
72486;BME280;60509;47.308;-122.428;2023-05-23T04:23:29;101167.39;;;17.87;26.49
72486;BME280;60509;47.308;-122.428;2023-05-23T04:25:55;101172.75;;;18.12;26.55
72486;BME280;60509;47.308;-122.428;2023-05-23T04:28:21;101173.35;;;17.81;26.41
72486;BME280;60509;47.308;-122.428;2023-05-23T04:30:47;101175.46;;;17.85;26.68
72486;BME280;60509;47.308;-122.428;2023-05-23T04:33:13;101180.43;;;18.04;26.53
72486;BME280;60509;47.308;-122.428;2023-05-23T04:35:39;101179.87;;;18.07;26.53
72486;BME280;60509;47.308;-122.428;2023-05-23T04:38:05;101178.61;;;17.92;26.72
72486;BME280;60509;47.308;-122.428;2023-05-23T04:40:31;101180.99;;;17.90;26.82
72486;BME280;60509;47.308;-122.428;2023-05-23T04:42:57;101183.62;;;17.63;26.97
72486;BME280;60509;47.308;-122.428;2023-05-23T04:45:23;101184.33;;;17.35;27.67
72486;BME280;60509;47.308;-122.428;2023-05-23T04:47:49;101183.96;;;17.24;27.63
72486;BME280;60509;47.308;-122.428;2023-05-23T04:50:15;101185.56;;;17.85;27.17
72486;BME280;60509;47.308;-122.428;2023-05-23T04:52:41;101185.22;;;18.35;27.18
72486;BME280;60509;47.308;-122.428;2023-05-23T04:55:07;101186.67;;;18.14;27.56
72486;BME280;60509;47.308;-122.428;2023-05-23T04:57:32;101188.86;;;18.02;27.64
72486;BME280;60509;47.308;-122.428;2023-05-23T04:59:58;101192.48;;;18.04;27.72
72486;BME280;60509;47.308;-122.428;2023-05-23T05:02:24;101192.00;;;17.74;28.01
72486;BME280;60509;47.308;-122.428;2023-05-23T05:04:50;101190.14;;;17.93;27.94
72486;BME280;60509;47.308;-122.428;2023-05-23T05:07:16;101194.61;;;17.69;28.05
72486;BME280;60509;47.308;-122.428;2023-05-23T05:09:42;101194.33;;;17.64;28.11
72486;BME280;60509;47.308;-122.428;2023-05-23T05:12:08;101192.38;;;17.65;28.02
72486;BME280;60509;47.308;-122.428;2023-05-23T05:14:36;101192.84;;;17.39;28.01
72486;BME280;60509;47.308;-122.428;2023-05-23T05:17:00;101191.00;;;17.73;27.92
72486;BME280;60509;47.308;-122.428;2023-05-23T05:19:26;101196.30;;;17.99;27.80
72486;BME280;60509;47.308;-122.428;2023-05-23T05:21:52;101198.81;;;17.59;27.95
72486;BME280;60509;47.308;-122.428;2023-05-23T05:24:18;101201.11;;;17.85;28.01
72486;BME280;60509;47.308;-122.428;2023-05-23T05:26:44;101198.78;;;17.64;28.41
72486;BME280;60509;47.308;-122.428;2023-05-23T05:29:10;101198.30;;;17.15;28.44
72486;BME280;60509;47.308;-122.428;2023-05-23T05:31:36;101201.13;;;18.15;28.33
72486;BME280;60509;47.308;-122.428;2023-05-23T05:34:02;101201.41;;;17.94;28.04
72486;BME280;60509;47.308;-122.428;2023-05-23T05:36:28;101201.36;;;17.60;28.45
72486;BME280;60509;47.308;-122.428;2023-05-23T05:38:54;101201.98;;;17.04;28.84
72486;BME280;60509;47.308;-122.428;2023-05-23T05:41:20;101200.71;;;16.25;29.41
72486;BME280;60509;47.308;-122.428;2023-05-23T05:43:46;101203.75;;;16.76;29.00
72486;BME280;60509;47.308;-122.428;2023-05-23T05:46:12;101201.86;;;17.93;28.33
72486;BME280;60509;47.308;-122.428;2023-05-23T05:48:38;101205.25;;;17.92;28.42
72486;BME280;60509;47.308;-122.428;2023-05-23T05:51:04;101204.74;;;17.60;28.71
72486;BME280;60509;47.308;-122.428;2023-05-23T05:53:30;101204.59;;;17.01;29.41
72486;BME280;60509;47.308;-122.428;2023-05-23T05:55:55;101206.60;;;17.03;29.06
72486;BME280;60509;47.308;-122.428;2023-05-23T05:58:21;101203.16;;;17.53;28.90
72486;BME280;60509;47.308;-122.428;2023-05-23T06:00:48;101203.57;;;15.88;30.16
72486;BME280;60509;47.308;-122.428;2023-05-23T06:03:13;101205.94;;;17.42;28.88
72486;BME280;60509;47.308;-122.428;2023-05-23T06:05:39;101204.22;;;17.75;28.81
72486;BME280;60509;47.308;-122.428;2023-05-23T06:08:05;101205.54;;;17.34;28.84
72486;BME280;60509;47.308;-122.428;2023-05-23T06:10:31;101205.16;;;17.21;28.69
72486;BME280;60509;47.308;-122.428;2023-05-23T06:12:58;101203.72;;;16.78;29.29
72486;BME280;60509;47.308;-122.428;2023-05-23T06:15:23;101201.84;;;16.77;29.20
72486;BME280;60509;47.308;-122.428;2023-05-23T06:17:49;101201.50;;;17.14;28.71
72486;BME280;60509;47.308;-122.428;2023-05-23T06:20:15;101199.18;;;16.63;28.94
72486;BME280;60509;47.308;-122.428;2023-05-23T06:22:41;101198.52;;;16.34;29.28
72486;BME280;60509;47.308;-122.428;2023-05-23T06:25:09;101197.38;;;17.46;28.17
72486;BME280;60509;47.308;-122.428;2023-05-23T06:27:33;101196.14;;;16.37;29.32
72486;BME280;60509;47.308;-122.428;2023-05-23T06:29:59;101192.94;;;17.58;28.06
72486;BME280;60509;47.308;-122.428;2023-05-23T06:32:25;101189.99;;;16.03;29.32
72486;BME280;60509;47.308;-122.428;2023-05-23T06:34:51;101191.98;;;15.81;29.58
72486;BME280;60509;47.308;-122.428;2023-05-23T06:37:17;101190.96;;;16.11;29.32
72486;BME280;60509;47.308;-122.428;2023-05-23T06:39:43;101192.84;;;15.72;29.50
72486;BME280;60509;47.308;-122.428;2023-05-23T06:42:09;101190.10;;;16.04;29.17
72486;BME280;60509;47.308;-122.428;2023-05-23T06:44:35;101190.29;;;16.05;29.25
72486;BME280;60509;47.308;-122.428;2023-05-23T06:47:01;101194.13;;;15.48;29.64
72486;BME280;60509;47.308;-122.428;2023-05-23T06:49:27;101194.29;;;16.23;29.17
72486;BME280;60509;47.308;-122.428;2023-05-23T06:51:53;101193.35;;;15.54;29.48
72486;BME280;60509;47.308;-122.428;2023-05-23T06:54:19;101191.83;;;15.94;29.16
72486;BME280;60509;47.308;-122.428;2023-05-23T06:56:45;101192.03;;;15.70;29.19
72486;BME280;60509;47.308;-122.428;2023-05-23T06:59:11;101196.14;;;15.64;29.30
72486;BME280;60509;47.308;-122.428;2023-05-23T07:01:37;101192.24;;;15.63;29.00
72486;BME280;60509;47.308;-122.428;2023-05-23T07:04:03;101195.88;;;15.52;29.24
72486;BME280;60509;47.308;-122.428;2023-05-23T07:06:29;101196.72;;;15.98;28.91
72486;BME280;60509;47.308;-122.428;2023-05-23T07:08:55;101199.87;;;15.90;28.97
72486;BME280;60509;47.308;-122.428;2023-05-23T07:11:21;101195.66;;;16.22;28.59
72486;BME280;60509;47.308;-122.428;2023-05-23T07:13:47;101196.06;;;16.19;28.82
72486;BME280;60509;47.308;-122.428;2023-05-23T07:16:13;101202.30;;;15.14;29.29
72486;BME280;60509;47.308;-122.428;2023-05-23T07:18:39;101200.51;;;16.49;28.66
72486;BME280;60509;47.308;-122.428;2023-05-23T07:21:05;101200.34;;;15.65;28.88
72486;BME280;60509;47.308;-122.428;2023-05-23T07:23:32;101200.59;;;15.98;28.61
72486;BME280;60509;47.308;-122.428;2023-05-23T07:25:57;101202.80;;;15.88;28.65
72486;BME280;60509;47.308;-122.428;2023-05-23T07:28:23;101203.62;;;16.02;28.45
72486;BME280;60509;47.308;-122.428;2023-05-23T07:30:49;101209.38;;;15.55;28.86
72486;BME280;60509;47.308;-122.428;2023-05-23T07:33:15;101209.81;;;15.09;29.45
72486;BME280;60509;47.308;-122.428;2023-05-23T07:35:42;101206.82;;;16.93;27.79
72486;BME280;60509;47.308;-122.428;2023-05-23T07:38:07;101204.74;;;16.17;28.40
72486;BME280;60509;47.308;-122.428;2023-05-23T07:40:33;101202.29;;;16.12;28.65
72486;BME280;60509;47.308;-122.428;2023-05-23T07:42:58;101200.89;;;15.99;28.62
72486;BME280;60509;47.308;-122.428;2023-05-23T07:45:24;101206.06;;;15.19;29.13
72486;BME280;60509;47.308;-122.428;2023-05-23T07:47:50;101204.33;;;15.97;28.51
72486;BME280;60509;47.308;-122.428;2023-05-23T07:50:17;101203.92;;;15.94;28.55
72486;BME280;60509;47.308;-122.428;2023-05-23T07:52:43;101199.85;;;15.84;28.55
72486;BME280;60509;47.308;-122.428;2023-05-23T07:55:09;101201.98;;;15.26;28.96
72486;BME280;60509;47.308;-122.428;2023-05-23T07:57:34;101201.23;;;15.07;29.24
72486;BME280;60509;47.308;-122.428;2023-05-23T08:00:00;101199.38;;;16.02;28.40
72486;BME280;60509;47.308;-122.428;2023-05-23T08:02:26;101197.33;;;15.18;29.02
72486;BME280;60509;47.308;-122.428;2023-05-23T08:04:52;101194.78;;;15.86;28.54
72486;BME280;60509;47.308;-122.428;2023-05-23T08:07:19;101193.07;;;15.35;28.79
72486;BME280;60509;47.308;-122.428;2023-05-23T08:09:45;101193.63;;;15.73;28.58
72486;BME280;60509;47.308;-122.428;2023-05-23T08:12:11;101197.38;;;15.03;29.07
72486;BME280;60509;47.308;-122.428;2023-05-23T08:14:36;101194.54;;;15.96;28.30
72486;BME280;60509;47.308;-122.428;2023-05-23T08:17:03;101196.98;;;15.54;28.64
72486;BME280;60509;47.308;-122.428;2023-05-23T08:19:28;101195.00;;;14.97;29.03
72486;BME280;60509;47.308;-122.428;2023-05-23T08:21:54;101192.76;;;15.13;29.06
72486;BME280;60509;47.308;-122.428;2023-05-23T08:24:20;101186.47;;;15.40;28.88
72486;BME280;60509;47.308;-122.428;2023-05-23T08:26:46;101186.57;;;15.19;29.00
72486;BME280;60509;47.308;-122.428;2023-05-23T08:29:12;101187.77;;;15.27;28.82
72486;BME280;60509;47.308;-122.428;2023-05-23T08:31:38;101187.30;;;14.46;29.45
72486;BME280;60509;47.308;-122.428;2023-05-23T08:34:04;101185.17;;;15.59;28.36
72486;BME280;60509;47.308;-122.428;2023-05-23T08:36:30;101187.69;;;14.99;28.79
72486;BME280;60509;47.308;-122.428;2023-05-23T08:38:56;101183.16;;;16.25;27.94
72486;BME280;60509;47.308;-122.428;2023-05-23T08:41:23;101184.46;;;14.81;28.82
72486;BME280;60509;47.308;-122.428;2023-05-23T08:43:48;101180.71;;;16.01;27.99
72486;BME280;60509;47.308;-122.428;2023-05-23T08:46:14;101182.88;;;14.91;28.94
72486;BME280;60509;47.308;-122.428;2023-05-23T08:48:41;101185.29;;;14.92;28.85
72486;BME280;60509;47.308;-122.428;2023-05-23T08:51:06;101184.81;;;14.80;28.96
72486;BME280;60509;47.308;-122.428;2023-05-23T08:53:33;101187.28;;;14.83;28.79
72486;BME280;60509;47.308;-122.428;2023-05-23T08:55:58;101184.47;;;14.27;29.22
72486;BME280;60509;47.308;-122.428;2023-05-23T08:58:23;101185.26;;;14.71;28.95
72486;BME280;60509;47.308;-122.428;2023-05-23T09:00:51;101182.74;;;14.96;28.80
72486;BME280;60509;47.308;-122.428;2023-05-23T09:03:15;101184.57;;;15.12;28.60
72486;BME280;60509;47.308;-122.428;2023-05-23T09:05:42;101182.83;;;15.41;28.34
72486;BME280;60509;47.308;-122.428;2023-05-23T09:08:07;101183.68;;;15.36;28.17
72486;BME280;60509;47.308;-122.428;2023-05-23T09:10:33;101182.83;;;15.55;27.83
72486;BME280;60509;47.308;-122.428;2023-05-23T09:12:59;101179.83;;;16.16;27.39
72486;BME280;60509;47.308;-122.428;2023-05-23T09:15:25;101177.18;;;15.88;27.39
72486;BME280;60509;47.308;-122.428;2023-05-23T09:17:51;101177.85;;;15.46;28.04
72486;BME280;60509;47.308;-122.428;2023-05-23T09:20:17;101177.96;;;15.52;27.89
72486;BME280;60509;47.308;-122.428;2023-05-23T09:22:46;101175.59;;;15.85;27.62
72486;BME280;60509;47.308;-122.428;2023-05-23T09:25:09;101171.46;;;16.08;27.48
72486;BME280;60509;47.308;-122.428;2023-05-23T09:27:35;101171.99;;;15.85;27.40
72486;BME280;60509;47.308;-122.428;2023-05-23T09:30:06;101167.22;;;15.76;27.45
72486;BME280;60509;47.308;-122.428;2023-05-23T09:32:27;101170.16;;;15.87;27.46
72486;BME280;60509;47.308;-122.428;2023-05-23T09:34:56;101167.19;;;15.38;27.62
72486;BME280;60509;47.308;-122.428;2023-05-23T09:37:19;101165.96;;;15.86;27.38
72486;BME280;60509;47.308;-122.428;2023-05-23T09:39:46;101168.22;;;14.93;28.14
72486;BME280;60509;47.308;-122.428;2023-05-23T09:42:11;101167.66;;;15.21;27.91
72486;BME280;60509;47.308;-122.428;2023-05-23T09:44:41;101163.95;;;15.37;27.78
72486;BME280;60509;47.308;-122.428;2023-05-23T09:47:06;101161.35;;;14.80;28.10
72486;BME280;60509;47.308;-122.428;2023-05-23T09:49:28;101159.84;;;14.93;27.91
72486;BME280;60509;47.308;-122.428;2023-05-23T09:51:58;101161.39;;;15.76;27.66
72486;BME280;60509;47.308;-122.428;2023-05-23T09:54:20;101161.84;;;15.38;27.95
72486;BME280;60509;47.308;-122.428;2023-05-23T09:56:46;101159.29;;;14.92;28.29
72486;BME280;60509;47.308;-122.428;2023-05-23T09:59:13;101157.06;;;14.82;28.53
72486;BME280;60509;47.308;-122.428;2023-05-23T10:01:38;101153.79;;;14.91;28.37
72486;BME280;60509;47.308;-122.428;2023-05-23T10:04:04;101155.35;;;14.24;28.64
72486;BME280;60509;47.308;-122.428;2023-05-23T10:06:34;101161.82;;;13.96;29.16
72486;BME280;60509;47.308;-122.428;2023-05-23T10:09:00;101164.87;;;14.45;28.70
72486;BME280;60509;47.308;-122.428;2023-05-23T10:12:38;101160.16;;;14.49;28.59
72486;BME280;60509;47.308;-122.428;2023-05-23T10:13:49;101163.36;;;13.43;29.20
72486;BME280;60509;47.308;-122.428;2023-05-23T10:16:18;101163.27;;;14.26;28.83
72486;BME280;60509;47.308;-122.428;2023-05-23T10:18:43;101160.39;;;14.14;28.74
72486;BME280;60509;47.308;-122.428;2023-05-23T10:21:10;101159.40;;;14.18;28.71
72486;BME280;60509;47.308;-122.428;2023-05-23T10:23:33;101162.73;;;13.83;28.85
72486;BME280;60509;47.308;-122.428;2023-05-23T10:25:58;101161.35;;;14.46;28.52
72486;BME280;60509;47.308;-122.428;2023-05-23T10:28:24;101158.61;;;14.52;28.43
72486;BME280;60509;47.308;-122.428;2023-05-23T10:30:50;101157.42;;;14.15;28.80
72486;BME280;60509;47.308;-122.428;2023-05-23T10:33:16;101153.89;;;14.55;28.26
72486;BME280;60509;47.308;-122.428;2023-05-23T10:35:49;101156.82;;;14.33;28.46
72486;BME280;60509;47.308;-122.428;2023-05-23T10:38:12;101153.51;;;14.51;28.20
72486;BME280;60509;47.308;-122.428;2023-05-23T10:40:46;101148.61;;;14.03;28.51
72486;BME280;60509;47.308;-122.428;2023-05-23T10:43:04;101144.93;;;14.43;28.26
72486;BME280;60509;47.308;-122.428;2023-05-23T10:45:26;101148.06;;;14.13;28.46
72486;BME280;60509;47.308;-122.428;2023-05-23T10:47:52;101145.91;;;14.66;28.14
72486;BME280;60509;47.308;-122.428;2023-05-23T10:50:31;101146.13;;;14.16;28.38
72486;BME280;60509;47.308;-122.428;2023-05-23T10:52:43;101147.41;;;14.54;28.14
72486;BME280;60509;47.308;-122.428;2023-05-23T10:55:13;101150.13;;;13.90;28.43
72486;BME280;60509;47.308;-122.428;2023-05-23T10:57:36;101154.99;;;14.34;28.38
72486;BME280;60509;47.308;-122.428;2023-05-23T11:00:01;101155.30;;;14.36;28.30
72486;BME280;60509;47.308;-122.428;2023-05-23T11:02:28;101155.38;;;13.48;28.58
72486;BME280;60509;47.308;-122.428;2023-05-23T11:05:19;101154.69;;;13.79;28.67
72486;BME280;60509;47.308;-122.428;2023-05-23T11:07:34;101152.19;;;14.04;28.38
72486;BME280;60509;47.308;-122.428;2023-05-23T11:10:07;101151.76;;;14.11;28.21
72486;BME280;60509;47.308;-122.428;2023-05-23T11:12:11;101152.47;;;13.72;28.38
72486;BME280;60509;47.308;-122.428;2023-05-23T11:14:53;101153.63;;;13.56;28.45
72486;BME280;60509;47.308;-122.428;2023-05-23T11:17:16;101148.24;;;13.94;28.19
72486;BME280;60509;47.308;-122.428;2023-05-23T11:19:30;101147.45;;;14.26;28.01
72486;BME280;60509;47.308;-122.428;2023-05-23T11:21:58;101144.80;;;14.41;27.90
72486;BME280;60509;47.308;-122.428;2023-05-23T11:24:22;101141.15;;;14.36;27.87
72486;BME280;60509;47.308;-122.428;2023-05-23T11:26:57;101137.21;;;14.36;27.87
72486;BME280;60509;47.308;-122.428;2023-05-23T11:29:16;101132.59;;;14.19;27.80
72486;BME280;60509;47.308;-122.428;2023-05-23T11:31:39;101129.98;;;13.83;28.00
72486;BME280;60509;47.308;-122.428;2023-05-23T11:34:06;101131.40;;;14.12;27.80
72486;BME280;60509;47.308;-122.428;2023-05-23T11:36:31;101133.61;;;13.81;27.97
72486;BME280;60509;47.308;-122.428;2023-05-23T11:39:02;101135.40;;;14.00;27.89
72486;BME280;60509;47.308;-122.428;2023-05-23T11:41:23;101133.88;;;14.19;27.81
72486;BME280;60509;47.308;-122.428;2023-05-23T11:43:50;101129.59;;;14.03;27.80
72486;BME280;60509;47.308;-122.428;2023-05-23T11:46:15;101129.10;;;13.79;27.92
72486;BME280;60509;47.308;-122.428;2023-05-23T11:48:44;101128.51;;;13.74;27.98
72486;BME280;60509;47.308;-122.428;2023-05-23T11:51:07;101130.05;;;13.59;28.22
72486;BME280;60509;47.308;-122.428;2023-05-23T11:53:33;101128.58;;;14.23;27.69
72486;BME280;60509;47.308;-122.428;2023-05-23T11:56:01;101129.09;;;14.76;27.51
72486;BME280;60509;47.308;-122.428;2023-05-23T11:58:27;101124.69;;;13.99;27.86
72486;BME280;60509;47.308;-122.428;2023-05-23T12:00:51;101123.77;;;13.88;27.81
72486;BME280;60509;47.308;-122.428;2023-05-23T12:03:17;101121.57;;;13.80;28.13
72486;BME280;60509;47.308;-122.428;2023-05-23T12:05:43;101121.31;;;14.38;27.65
72486;BME280;60509;47.308;-122.428;2023-05-23T12:08:11;101120.58;;;14.33;27.78
72486;BME280;60509;47.308;-122.428;2023-05-23T12:10:35;101123.50;;;13.79;27.82
72486;BME280;60509;47.308;-122.428;2023-05-23T12:13:01;101121.27;;;13.92;28.04